Terminal Aerodrome Forecast
Issued by NWS Amarillo, TX

Home | Current Version | Previous Version | Text Only | Print | Product List | Glossary On
Versions: 1 2 3 4 5 6 7 8 9 10 11 12 13 14
000
FTUS44 KAMA 251700
TAFGUY
TAF
KGUY 251720Z 2518/2618 23020G30KT P6SM SCT200
     FM260000 25010KT P6SM FEW200
     FM261000 34012KT P6SM FEW200=

USA.gov is the U.S. government's official web portal to all federal, state and local government web resources and services.